Rechercher aéroport 
image banner adimage banner adimage banner ad
image banner ad

L17 - Taft-Kern County

Situé à Taft, United States

ICAO - L17, IATA -

Données fournies par Airmate  

Information générale

Coordonnées: N35°8'30" W119°26'16"
Élévation : 858 feet MSL.
Variation magnétique : 14° East
Voir autres Aéroports à California

Données opérationnelles

Special qualification required
Heure actuelle UTC:
Heure actuelle locale:
Météo à : KBFL - Meadows Field ( 47 km )
METAR: KBFL 292154Z 31012KT 7SM CLR 38/10 A2983 RMK AO2 SLP093 T03830100
TAF: KBFL 291729Z 2918/3018 VRB03KT P6SM SKC FM292000 31010G16KT P6SM SKC FM300600 VRB05KT P6SM BKN250
Voir NOTAMs / SUP AIP / TFR affectant cet aéroport [VIEW]
Fréquences de communication: [VIEW]

Pistes:

Identifiant RWYQFULongueur (ft)Largeur (ft)SurfaceLDA (ft)
0780°328360ASPH
25260°328360ASPH

Coordonnées de l'aéroport

Adresse: Taft United States

Vue satellite de L17